sensor_id;sensor_type;location;lat;lon;timestamp;P1;durP1;ratioP1;P2;durP2;ratioP2
32964;SDS011;19317;48.226;11.686;2022-12-07T00:04:38;5.90;;;5.30;;
32964;SDS011;19317;48.226;11.686;2022-12-07T00:09:29;6.10;;;5.50;;
32964;SDS011;19317;48.226;11.686;2022-12-07T00:14:19;5.87;;;5.23;;
32964;SDS011;19317;48.226;11.686;2022-12-07T00:19:11;6.30;;;5.30;;
32964;SDS011;19317;48.226;11.686;2022-12-07T00:24:03;5.60;;;4.70;;
32964;SDS011;19317;48.226;11.686;2022-12-07T00:28:55;5.57;;;4.93;;
32964;SDS011;19317;48.226;11.686;2022-12-07T00:33:47;5.80;;;5.03;;
32964;SDS011;19317;48.226;11.686;2022-12-07T00:38:38;6.13;;;5.10;;
32964;SDS011;19317;48.226;11.686;2022-12-07T00:43:30;8.90;;;5.63;;
32964;SDS011;19317;48.226;11.686;2022-12-07T00:48:21;5.80;;;5.23;;
32964;SDS011;19317;48.226;11.686;2022-12-07T00:53:12;6.50;;;5.37;;
32964;SDS011;19317;48.226;11.686;2022-12-07T00:58:03;7.13;;;5.60;;
32964;SDS011;19317;48.226;11.686;2022-12-07T01:02:54;6.00;;;5.13;;
32964;SDS011;19317;48.226;11.686;2022-12-07T01:07:45;6.33;;;5.67;;
32964;SDS011;19317;48.226;11.686;2022-12-07T01:12:36;6.00;;;5.37;;
32964;SDS011;19317;48.226;11.686;2022-12-07T01:17:28;6.30;;;5.60;;
32964;SDS011;19317;48.226;11.686;2022-12-07T01:22:19;8.87;;;6.30;;
32964;SDS011;19317;48.226;11.686;2022-12-07T01:27:10;5.60;;;4.80;;
32964;SDS011;19317;48.226;11.686;2022-12-07T01:32:01;7.20;;;5.30;;
32964;SDS011;19317;48.226;11.686;2022-12-07T01:36:51;6.90;;;5.50;;
32964;SDS011;19317;48.226;11.686;2022-12-07T01:41:42;6.07;;;5.40;;
32964;SDS011;19317;48.226;11.686;2022-12-07T01:46:33;6.70;;;5.80;;
32964;SDS011;19317;48.226;11.686;2022-12-07T01:51:24;7.17;;;5.70;;
32964;SDS011;19317;48.226;11.686;2022-12-07T01:56:17;7.30;;;5.27;;
32964;SDS011;19317;48.226;11.686;2022-12-07T02:01:09;7.60;;;6.20;;
32964;SDS011;19317;48.226;11.686;2022-12-07T02:06:00;6.97;;;5.20;;
32964;SDS011;19317;48.226;11.686;2022-12-07T02:10:51;7.33;;;5.57;;
32964;SDS011;19317;48.226;11.686;2022-12-07T02:20:33;9.43;;;6.37;;
32964;SDS011;19317;48.226;11.686;2022-12-07T02:30:35;9.90;;;6.10;;
32964;SDS011;19317;48.226;11.686;2022-12-07T02:41:16;7.80;;;6.50;;
32964;SDS011;19317;48.226;11.686;2022-12-07T02:45:39;8.73;;;6.40;;
32964;SDS011;19317;48.226;11.686;2022-12-07T02:50:31;7.90;;;6.00;;
32964;SDS011;19317;48.226;11.686;2022-12-07T02:55:23;8.53;;;6.07;;
32964;SDS011;19317;48.226;11.686;2022-12-07T03:00:17;7.73;;;5.87;;
32964;SDS011;19317;48.226;11.686;2022-12-07T03:15:02;6.80;;;5.83;;
32964;SDS011;19317;48.226;11.686;2022-12-07T03:19:57;7.30;;;6.00;;
32964;SDS011;19317;48.226;11.686;2022-12-07T03:24:57;7.90;;;6.10;;
32964;SDS011;19317;48.226;11.686;2022-12-07T03:29:57;7.33;;;6.33;;
32964;SDS011;19317;48.226;11.686;2022-12-07T03:34:50;7.10;;;5.97;;
32964;SDS011;19317;48.226;11.686;2022-12-07T03:40:20;8.57;;;6.40;;
32964;SDS011;19317;48.226;11.686;2022-12-07T03:45:00;7.30;;;6.03;;
32964;SDS011;19317;48.226;11.686;2022-12-07T03:49:53;9.63;;;6.50;;
32964;SDS011;19317;48.226;11.686;2022-12-07T03:54:48;7.40;;;6.27;;
32964;SDS011;19317;48.226;11.686;2022-12-07T03:59:40;7.70;;;6.43;;
32964;SDS011;19317;48.226;11.686;2022-12-07T04:04:32;9.10;;;6.67;;
32964;SDS011;19317;48.226;11.686;2022-12-07T04:09:23;7.10;;;5.77;;
32964;SDS011;19317;48.226;11.686;2022-12-07T04:14:14;7.03;;;6.23;;
32964;SDS011;19317;48.226;11.686;2022-12-07T04:19:05;8.00;;;6.70;;
32964;SDS011;19317;48.226;11.686;2022-12-07T04:23:56;6.93;;;6.00;;
32964;SDS011;19317;48.226;11.686;2022-12-07T04:28:47;7.83;;;6.03;;
32964;SDS011;19317;48.226;11.686;2022-12-07T04:33:38;7.13;;;5.80;;
32964;SDS011;19317;48.226;11.686;2022-12-07T04:38:28;8.83;;;6.03;;
32964;SDS011;19317;48.226;11.686;2022-12-07T04:43:19;7.80;;;6.30;;
32964;SDS011;19317;48.226;11.686;2022-12-07T04:48:10;7.90;;;6.10;;
32964;SDS011;19317;48.226;11.686;2022-12-07T04:53:01;8.40;;;7.03;;
32964;SDS011;19317;48.226;11.686;2022-12-07T04:57:52;8.33;;;6.50;;
32964;SDS011;19317;48.226;11.686;2022-12-07T05:02:43;7.10;;;5.93;;
32964;SDS011;19317;48.226;11.686;2022-12-07T05:07:34;7.10;;;6.40;;
32964;SDS011;19317;48.226;11.686;2022-12-07T05:12:25;8.53;;;6.40;;
32964;SDS011;19317;48.226;11.686;2022-12-07T05:17:15;7.50;;;6.20;;
32964;SDS011;19317;48.226;11.686;2022-12-07T05:22:06;7.87;;;6.50;;
32964;SDS011;19317;48.226;11.686;2022-12-07T05:26:57;10.20;;;7.27;;
32964;SDS011;19317;48.226;11.686;2022-12-07T05:31:48;8.90;;;6.90;;
32964;SDS011;19317;48.226;11.686;2022-12-07T05:36:39;8.70;;;6.67;;
32964;SDS011;19317;48.226;11.686;2022-12-07T05:41:30;6.93;;;6.10;;
32964;SDS011;19317;48.226;11.686;2022-12-07T05:46:21;8.20;;;6.13;;
32964;SDS011;19317;48.226;11.686;2022-12-07T05:51:12;10.23;;;7.13;;
32964;SDS011;19317;48.226;11.686;2022-12-07T05:56:02;9.20;;;6.17;;
32964;SDS011;19317;48.226;11.686;2022-12-07T06:00:54;8.43;;;6.63;;
32964;SDS011;19317;48.226;11.686;2022-12-07T06:05:45;8.57;;;6.77;;
32964;SDS011;19317;48.226;11.686;2022-12-07T06:10:36;8.30;;;6.87;;
32964;SDS011;19317;48.226;11.686;2022-12-07T06:15:27;9.13;;;7.23;;
32964;SDS011;19317;48.226;11.686;2022-12-07T06:20:18;7.87;;;6.70;;
32964;SDS011;19317;48.226;11.686;2022-12-07T06:25:09;7.67;;;6.20;;
32964;SDS011;19317;48.226;11.686;2022-12-07T06:29:59;8.80;;;7.07;;
32964;SDS011;19317;48.226;11.686;2022-12-07T06:34:50;8.87;;;7.40;;
32964;SDS011;19317;48.226;11.686;2022-12-07T06:39:41;8.73;;;6.87;;
32964;SDS011;19317;48.226;11.686;2022-12-07T06:44:32;9.20;;;7.60;;
32964;SDS011;19317;48.226;11.686;2022-12-07T06:49:23;9.80;;;7.30;;
32964;SDS011;19317;48.226;11.686;2022-12-07T06:54:14;7.30;;;6.60;;
32964;SDS011;19317;48.226;11.686;2022-12-07T06:59:05;8.43;;;6.43;;
32964;SDS011;19317;48.226;11.686;2022-12-07T07:03:57;8.90;;;6.90;;
32964;SDS011;19317;48.226;11.686;2022-12-07T07:08:47;9.07;;;7.27;;
32964;SDS011;19317;48.226;11.686;2022-12-07T07:13:38;7.47;;;6.33;;
32964;SDS011;19317;48.226;11.686;2022-12-07T07:18:29;8.27;;;6.37;;
32964;SDS011;19317;48.226;11.686;2022-12-07T07:23:20;7.77;;;6.40;;
32964;SDS011;19317;48.226;11.686;2022-12-07T07:28:12;8.73;;;7.10;;
32964;SDS011;19317;48.226;11.686;2022-12-07T07:33:03;9.97;;;7.17;;
32964;SDS011;19317;48.226;11.686;2022-12-07T07:37:54;8.20;;;7.13;;
32964;SDS011;19317;48.226;11.686;2022-12-07T07:42:49;8.93;;;6.90;;
32964;SDS011;19317;48.226;11.686;2022-12-07T07:47:40;9.10;;;6.90;;
32964;SDS011;19317;48.226;11.686;2022-12-07T07:52:30;9.50;;;7.37;;
32964;SDS011;19317;48.226;11.686;2022-12-07T07:57:21;8.03;;;7.00;;
32964;SDS011;19317;48.226;11.686;2022-12-07T08:02:16;9.47;;;7.73;;
32964;SDS011;19317;48.226;11.686;2022-12-07T08:07:07;10.00;;;7.97;;
32964;SDS011;19317;48.226;11.686;2022-12-07T08:11:58;8.73;;;6.83;;
32964;SDS011;19317;48.226;11.686;2022-12-07T08:16:49;10.00;;;7.60;;
32964;SDS011;19317;48.226;11.686;2022-12-07T08:21:40;8.47;;;7.30;;
32964;SDS011;19317;48.226;11.686;2022-12-07T08:26:31;9.20;;;7.07;;
32964;SDS011;19317;48.226;11.686;2022-12-07T08:31:22;9.63;;;7.00;;
32964;SDS011;19317;48.226;11.686;2022-12-07T08:36:13;8.33;;;7.03;;
32964;SDS011;19317;48.226;11.686;2022-12-07T08:41:04;8.50;;;7.07;;
32964;SDS011;19317;48.226;11.686;2022-12-07T08:51:05;7.40;;;6.47;;
32964;SDS011;19317;48.226;11.686;2022-12-07T08:55:56;8.10;;;6.80;;
32964;SDS011;19317;48.226;11.686;2022-12-07T09:00:47;9.97;;;6.77;;
32964;SDS011;19317;48.226;11.686;2022-12-07T09:05:38;9.03;;;7.40;;
32964;SDS011;19317;48.226;11.686;2022-12-07T09:10:29;9.13;;;6.90;;
32964;SDS011;19317;48.226;11.686;2022-12-07T09:15:20;8.03;;;6.27;;
32964;SDS011;19317;48.226;11.686;2022-12-07T09:20:11;7.80;;;6.20;;
32964;SDS011;19317;48.226;11.686;2022-12-07T09:25:02;8.20;;;6.30;;
32964;SDS011;19317;48.226;11.686;2022-12-07T09:29:53;8.40;;;6.43;;
32964;SDS011;19317;48.226;11.686;2022-12-07T09:34:44;11.17;;;6.40;;
32964;SDS011;19317;48.226;11.686;2022-12-07T09:39:38;7.67;;;6.17;;
32964;SDS011;19317;48.226;11.686;2022-12-07T09:44:29;7.63;;;6.37;;
32964;SDS011;19317;48.226;11.686;2022-12-07T09:49:21;5.93;;;4.60;;
32964;SDS011;19317;48.226;11.686;2022-12-07T09:54:13;10.87;;;6.53;;
32964;SDS011;19317;48.226;11.686;2022-12-07T09:59:05;8.50;;;6.43;;
32964;SDS011;19317;48.226;11.686;2022-12-07T10:04:01;5.83;;;4.90;;
32964;SDS011;19317;48.226;11.686;2022-12-07T10:08:52;6.80;;;5.27;;
32964;SDS011;19317;48.226;11.686;2022-12-07T10:13:47;7.70;;;6.20;;
32964;SDS011;19317;48.226;11.686;2022-12-07T10:18:39;10.40;;;7.40;;
32964;SDS011;19317;48.226;11.686;2022-12-07T10:23:30;6.03;;;4.87;;
32964;SDS011;19317;48.226;11.686;2022-12-07T10:28:21;7.30;;;5.63;;
32964;SDS011;19317;48.226;11.686;2022-12-07T10:33:32;8.53;;;6.30;;
32964;SDS011;19317;48.226;11.686;2022-12-07T10:38:24;7.67;;;6.03;;
32964;SDS011;19317;48.226;11.686;2022-12-07T10:43:18;8.17;;;6.50;;
32964;SDS011;19317;48.226;11.686;2022-12-07T11:08:03;7.83;;;4.80;;
32964;SDS011;19317;48.226;11.686;2022-12-07T11:18:21;3.83;;;3.50;;
32964;SDS011;19317;48.226;11.686;2022-12-07T11:23:15;5.50;;;4.57;;
32964;SDS011;19317;48.226;11.686;2022-12-07T11:34:18;6.27;;;5.20;;
32964;SDS011;19317;48.226;11.686;2022-12-07T11:38:37;6.90;;;5.30;;
32964;SDS011;19317;48.226;11.686;2022-12-07T11:43:32;8.70;;;5.43;;
32964;SDS011;19317;48.226;11.686;2022-12-07T11:48:29;4.97;;;4.43;;
32964;SDS011;19317;48.226;11.686;2022-12-07T11:58:21;6.10;;;4.67;;
32964;SDS011;19317;48.226;11.686;2022-12-07T12:03:14;5.60;;;4.30;;
32964;SDS011;19317;48.226;11.686;2022-12-07T12:17:54;5.43;;;4.93;;
32964;SDS011;19317;48.226;11.686;2022-12-07T12:22:53;7.07;;;5.40;;
32964;SDS011;19317;48.226;11.686;2022-12-07T12:27:46;5.13;;;4.43;;
32964;SDS011;19317;48.226;11.686;2022-12-07T12:32:39;7.53;;;6.00;;
32964;SDS011;19317;48.226;11.686;2022-12-07T12:42:42;5.90;;;4.67;;
32964;SDS011;19317;48.226;11.686;2022-12-07T12:47:51;8.30;;;5.43;;
32964;SDS011;19317;48.226;11.686;2022-12-07T12:57:33;7.20;;;5.67;;
32964;SDS011;19317;48.226;11.686;2022-12-07T13:12:28;5.63;;;5.03;;
32964;SDS011;19317;48.226;11.686;2022-12-07T13:27:22;7.00;;;5.40;;
32964;SDS011;19317;48.226;11.686;2022-12-07T13:32:23;6.43;;;5.43;;
32964;SDS011;19317;48.226;11.686;2022-12-07T13:42:22;8.33;;;6.00;;
32964;SDS011;19317;48.226;11.686;2022-12-07T13:47:20;9.37;;;5.73;;
32964;SDS011;19317;48.226;11.686;2022-12-07T13:57:06;9.33;;;6.37;;
32964;SDS011;19317;48.226;11.686;2022-12-07T14:01:57;7.00;;;5.60;;
32964;SDS011;19317;48.226;11.686;2022-12-07T14:06:49;7.03;;;5.47;;
32964;SDS011;19317;48.226;11.686;2022-12-07T14:11:41;7.37;;;5.80;;
32964;SDS011;19317;48.226;11.686;2022-12-07T14:16:33;7.30;;;5.67;;
32964;SDS011;19317;48.226;11.686;2022-12-07T14:21:28;9.07;;;6.20;;
32964;SDS011;19317;48.226;11.686;2022-12-07T14:26:20;7.13;;;5.60;;
32964;SDS011;19317;48.226;11.686;2022-12-07T14:31:12;6.83;;;5.60;;
32964;SDS011;19317;48.226;11.686;2022-12-07T14:36:03;7.40;;;5.70;;
32964;SDS011;19317;48.226;11.686;2022-12-07T14:40:54;6.87;;;5.77;;
32964;SDS011;19317;48.226;11.686;2022-12-07T14:45:45;9.33;;;6.60;;
32964;SDS011;19317;48.226;11.686;2022-12-07T14:50:37;7.83;;;6.23;;
32964;SDS011;19317;48.226;11.686;2022-12-07T14:55:29;7.63;;;6.30;;
32964;SDS011;19317;48.226;11.686;2022-12-07T15:00:21;8.30;;;5.87;;
32964;SDS011;19317;48.226;11.686;2022-12-07T15:05:13;7.00;;;5.50;;
32964;SDS011;19317;48.226;11.686;2022-12-07T15:10:04;7.70;;;5.80;;
32964;SDS011;19317;48.226;11.686;2022-12-07T15:14:55;7.20;;;5.77;;
32964;SDS011;19317;48.226;11.686;2022-12-07T15:19:46;7.23;;;5.93;;
32964;SDS011;19317;48.226;11.686;2022-12-07T15:24:37;7.40;;;5.70;;
32964;SDS011;19317;48.226;11.686;2022-12-07T15:29:28;7.43;;;5.63;;
32964;SDS011;19317;48.226;11.686;2022-12-07T15:34:19;6.47;;;5.47;;
32964;SDS011;19317;48.226;11.686;2022-12-07T15:39:10;7.70;;;5.50;;
32964;SDS011;19317;48.226;11.686;2022-12-07T15:44:01;8.47;;;5.60;;
32964;SDS011;19317;48.226;11.686;2022-12-07T15:48:51;6.53;;;5.43;;
32964;SDS011;19317;48.226;11.686;2022-12-07T15:53:42;7.67;;;5.57;;
32964;SDS011;19317;48.226;11.686;2022-12-07T15:58:33;7.97;;;5.30;;
32964;SDS011;19317;48.226;11.686;2022-12-07T16:03:24;8.13;;;5.80;;
32964;SDS011;19317;48.226;11.686;2022-12-07T16:08:15;7.37;;;5.50;;
32964;SDS011;19317;48.226;11.686;2022-12-07T16:13:06;7.67;;;5.57;;
32964;SDS011;19317;48.226;11.686;2022-12-07T16:17:57;10.20;;;5.50;;
32964;SDS011;19317;48.226;11.686;2022-12-07T16:22:50;7.40;;;6.17;;
32964;SDS011;19317;48.226;11.686;2022-12-07T16:27:41;11.80;;;9.07;;
32964;SDS011;19317;48.226;11.686;2022-12-07T16:32:32;9.00;;;6.50;;
32964;SDS011;19317;48.226;11.686;2022-12-07T16:37:23;8.80;;;6.00;;
32964;SDS011;19317;48.226;11.686;2022-12-07T16:42:14;8.23;;;6.33;;
32964;SDS011;19317;48.226;11.686;2022-12-07T16:47:05;8.50;;;6.60;;
32964;SDS011;19317;48.226;11.686;2022-12-07T16:51:55;8.47;;;6.10;;
32964;SDS011;19317;48.226;11.686;2022-12-07T16:56:46;8.97;;;6.13;;
32964;SDS011;19317;48.226;11.686;2022-12-07T17:01:37;8.13;;;6.00;;
32964;SDS011;19317;48.226;11.686;2022-12-07T17:06:28;7.47;;;5.80;;
32964;SDS011;19317;48.226;11.686;2022-12-07T17:11:23;8.57;;;5.60;;
32964;SDS011;19317;48.226;11.686;2022-12-07T17:16:14;8.10;;;5.70;;
32964;SDS011;19317;48.226;11.686;2022-12-07T17:21:06;9.13;;;6.40;;
32964;SDS011;19317;48.226;11.686;2022-12-07T17:26:07;6.57;;;5.17;;
32964;SDS011;19317;48.226;11.686;2022-12-07T17:30:59;7.43;;;5.37;;
32964;SDS011;19317;48.226;11.686;2022-12-07T17:35:49;6.23;;;5.60;;
32964;SDS011;19317;48.226;11.686;2022-12-07T17:40:40;8.77;;;6.63;;
32964;SDS011;19317;48.226;11.686;2022-12-07T17:45:31;10.23;;;7.90;;
32964;SDS011;19317;48.226;11.686;2022-12-07T17:50:22;10.63;;;7.00;;
32964;SDS011;19317;48.226;11.686;2022-12-07T17:55:13;10.07;;;6.13;;
32964;SDS011;19317;48.226;11.686;2022-12-07T18:00:04;9.47;;;6.97;;
32964;SDS011;19317;48.226;11.686;2022-12-07T18:04:55;8.30;;;7.10;;
32964;SDS011;19317;48.226;11.686;2022-12-07T18:09:46;8.03;;;6.50;;
32964;SDS011;19317;48.226;11.686;2022-12-07T18:14:37;9.33;;;6.53;;
32964;SDS011;19317;48.226;11.686;2022-12-07T18:19:28;10.60;;;7.43;;
32964;SDS011;19317;48.226;11.686;2022-12-07T18:24:19;8.67;;;6.40;;
32964;SDS011;19317;48.226;11.686;2022-12-07T18:29:12;8.43;;;6.10;;
32964;SDS011;19317;48.226;11.686;2022-12-07T18:34:04;8.00;;;6.13;;
32964;SDS011;19317;48.226;11.686;2022-12-07T18:38:55;9.87;;;6.73;;
32964;SDS011;19317;48.226;11.686;2022-12-07T18:43:46;10.23;;;7.60;;
32964;SDS011;19317;48.226;11.686;2022-12-07T18:48:37;16.97;;;9.27;;
32964;SDS011;19317;48.226;11.686;2022-12-07T18:53:28;19.43;;;9.97;;
32964;SDS011;19317;48.226;11.686;2022-12-07T18:58:19;10.77;;;7.07;;
32964;SDS011;19317;48.226;11.686;2022-12-07T19:03:10;11.83;;;8.73;;
32964;SDS011;19317;48.226;11.686;2022-12-07T19:08:01;9.20;;;6.90;;
32964;SDS011;19317;48.226;11.686;2022-12-07T19:12:52;12.43;;;7.80;;
32964;SDS011;19317;48.226;11.686;2022-12-07T19:17:43;9.77;;;7.33;;
32964;SDS011;19317;48.226;11.686;2022-12-07T19:22:34;13.17;;;8.40;;
32964;SDS011;19317;48.226;11.686;2022-12-07T19:27:25;15.67;;;9.53;;
32964;SDS011;19317;48.226;11.686;2022-12-07T19:32:16;17.10;;;8.53;;
32964;SDS011;19317;48.226;11.686;2022-12-07T19:37:07;15.77;;;9.23;;
32964;SDS011;19317;48.226;11.686;2022-12-07T19:41:59;11.47;;;7.97;;
32964;SDS011;19317;48.226;11.686;2022-12-07T19:46:50;10.83;;;7.53;;
32964;SDS011;19317;48.226;11.686;2022-12-07T19:51:42;11.13;;;7.20;;
32964;SDS011;19317;48.226;11.686;2022-12-07T19:56:33;10.63;;;7.60;;
32964;SDS011;19317;48.226;11.686;2022-12-07T20:01:24;11.30;;;7.77;;
32964;SDS011;19317;48.226;11.686;2022-12-07T20:06:16;12.10;;;7.50;;
32964;SDS011;19317;48.226;11.686;2022-12-07T20:11:07;13.57;;;7.70;;
32964;SDS011;19317;48.226;11.686;2022-12-07T20:16:01;10.87;;;7.93;;
32964;SDS011;19317;48.226;11.686;2022-12-07T20:20:53;11.10;;;7.83;;
32964;SDS011;19317;48.226;11.686;2022-12-07T20:25:44;12.30;;;7.80;;
32964;SDS011;19317;48.226;11.686;2022-12-07T20:30:35;11.83;;;8.03;;
32964;SDS011;19317;48.226;11.686;2022-12-07T20:35:26;11.07;;;7.47;;
32964;SDS011;19317;48.226;11.686;2022-12-07T20:40:17;10.13;;;7.33;;
32964;SDS011;19317;48.226;11.686;2022-12-07T20:45:08;10.37;;;7.77;;
32964;SDS011;19317;48.226;11.686;2022-12-07T20:49:59;23.23;;;14.23;;
32964;SDS011;19317;48.226;11.686;2022-12-07T20:54:50;19.93;;;11.83;;
32964;SDS011;19317;48.226;11.686;2022-12-07T20:59:41;13.80;;;7.93;;
32964;SDS011;19317;48.226;11.686;2022-12-07T21:04:32;10.67;;;7.17;;
32964;SDS011;19317;48.226;11.686;2022-12-07T21:09:23;10.03;;;6.80;;
32964;SDS011;19317;48.226;11.686;2022-12-07T21:14:14;9.37;;;6.80;;
32964;SDS011;19317;48.226;11.686;2022-12-07T21:19:05;9.07;;;6.90;;
32964;SDS011;19317;48.226;11.686;2022-12-07T21:23:55;9.57;;;6.57;;
32964;SDS011;19317;48.226;11.686;2022-12-07T21:28:46;8.70;;;6.57;;
32964;SDS011;19317;48.226;11.686;2022-12-07T21:33:37;13.60;;;8.30;;
32964;SDS011;19317;48.226;11.686;2022-12-07T21:38:29;12.03;;;7.13;;
32964;SDS011;19317;48.226;11.686;2022-12-07T21:43:20;9.20;;;6.67;;
32964;SDS011;19317;48.226;11.686;2022-12-07T21:48:10;7.70;;;6.37;;
32964;SDS011;19317;48.226;11.686;2022-12-07T21:53:01;11.27;;;7.17;;
32964;SDS011;19317;48.226;11.686;2022-12-07T21:57:52;10.13;;;7.00;;
32964;SDS011;19317;48.226;11.686;2022-12-07T22:02:43;12.10;;;7.27;;
32964;SDS011;19317;48.226;11.686;2022-12-07T22:07:34;11.33;;;7.73;;
32964;SDS011;19317;48.226;11.686;2022-12-07T22:12:25;11.80;;;7.77;;
32964;SDS011;19317;48.226;11.686;2022-12-07T22:17:16;9.53;;;6.97;;
32964;SDS011;19317;48.226;11.686;2022-12-07T22:22:11;9.40;;;7.07;;
32964;SDS011;19317;48.226;11.686;2022-12-07T22:27:02;11.10;;;7.80;;
32964;SDS011;19317;48.226;11.686;2022-12-07T22:31:53;8.73;;;6.83;;
32964;SDS011;19317;48.226;11.686;2022-12-07T22:36:44;11.80;;;7.43;;
32964;SDS011;19317;48.226;11.686;2022-12-07T22:41:35;10.93;;;7.20;;
32964;SDS011;19317;48.226;11.686;2022-12-07T22:46:26;12.37;;;8.47;;
32964;SDS011;19317;48.226;11.686;2022-12-07T22:51:27;12.63;;;8.23;;
32964;SDS011;19317;48.226;11.686;2022-12-07T22:56:18;13.47;;;8.30;;
32964;SDS011;19317;48.226;11.686;2022-12-07T23:01:09;10.20;;;7.30;;
32964;SDS011;19317;48.226;11.686;2022-12-07T23:06:05;13.57;;;7.90;;
32964;SDS011;19317;48.226;11.686;2022-12-07T23:10:56;9.17;;;7.13;;
32964;SDS011;19317;48.226;11.686;2022-12-07T23:15:46;11.20;;;7.07;;
32964;SDS011;19317;48.226;11.686;2022-12-07T23:20:37;9.27;;;6.80;;
32964;SDS011;19317;48.226;11.686;2022-12-07T23:25:28;10.03;;;7.27;;
32964;SDS011;19317;48.226;11.686;2022-12-07T23:30:19;11.13;;;7.33;;
32964;SDS011;19317;48.226;11.686;2022-12-07T23:35:10;10.93;;;7.43;;
32964;SDS011;19317;48.226;11.686;2022-12-07T23:40:01;10.80;;;7.20;;
32964;SDS011;19317;48.226;11.686;2022-12-07T23:44:52;10.93;;;7.03;;
32964;SDS011;19317;48.226;11.686;2022-12-07T23:49:42;10.97;;;7.70;;
32964;SDS011;19317;48.226;11.686;2022-12-07T23:54:33;11.07;;;7.07;;
32964;SDS011;19317;48.226;11.686;2022-12-07T23:59:24;12.63;;;8.53;;
